Time;durP1;ratioP1;P1;durP2;ratioP2;P2;SDS_P1;SDS_P2;PMS_P1;PMS_P2;Temp;Humidity;BMP_temperature;BMP_pressure;BME280_temperature;BME280_humidity;BME280_pressure;Samples;Min_cycle;Max_cycle;Signal;HPM_P1;HPM_P2
2022/01/04 00:00:35;;;;;;;6.20;1.40;;;;;;;13.55;48.32;98218.06;4503279;31;20164;-81
2022/01/04 00:03:00;;;;;;;6.05;1.50;;;;;;;13.57;48.07;98221.44;4503574;31;20438;-81
2022/01/04 00:05:26;;;;;;;6.60;1.73;;;;;;;13.63;47.56;98222.78;4503192;31;20133;-81
2022/01/04 00:07:51;;;;;;;7.28;1.60;;;;;;;13.65;47.38;98223.50;4503385;31;20128;-81
2022/01/04 00:10:21;;;;;;;4.45;1.60;;;;;;;13.69;47.44;98232.87;4503221;31;20389;-81
2022/01/04 00:15:31;;;;;;;8.23;1.77;;;;;;;13.65;47.74;98229.62;4491026;31;20160;-81
2022/01/04 00:17:56;;;;;;;8.73;2.03;;;;;;;13.65;48.67;98234.09;4503200;31;20081;-81
2022/01/04 00:20:22;;;;;;;9.57;2.58;;;;;;;13.57;48.96;98242.59;4503130;31;20136;-81
2022/01/04 00:22:48;;;;;;;8.43;2.28;;;;;;;13.32;49.49;98240.97;4503063;31;20448;-80
2022/01/04 00:25:15;;;;;;;7.35;2.00;;;;;;;13.50;49.69;98242.25;4503131;31;20130;-80
2022/01/04 00:27:40;;;;;;;11.27;3.00;;;;;;;13.50;49.98;98230.78;4489026;31;20554;-81
2022/01/04 00:30:07;;;;;;;11.00;3.00;;;;;;;13.42;49.97;98231.34;4503071;31;20193;-81
2022/01/04 00:32:32;;;;;;;10.52;3.10;;;;;;;13.46;49.97;98227.56;4503127;31;20148;-81
2022/01/04 00:34:57;;;;;;;12.10;3.15;;;;;;;13.36;49.99;98231.81;4502627;31;20431;-80
2022/01/04 00:37:23;;;;;;;8.90;2.80;;;;;;;13.33;50.12;98227.63;4502837;31;20084;-80
2022/01/04 00:39:48;;;;;;;11.40;3.20;;;;;;;13.20;50.46;98220.69;4503089;31;20080;-80
2022/01/04 00:42:14;;;;;;;11.07;3.12;;;;;;;13.19;50.22;98214.53;4503120;31;20106;-82
2022/01/04 00:44:39;;;;;;;10.05;3.10;;;;;;;13.20;50.11;98207.47;4503146;31;20118;-82
2022/01/04 00:47:08;;;;;;;9.98;3.05;;;;;;;13.22;49.80;98211.66;4488942;31;20373;-82
2022/01/04 00:49:33;;;;;;;10.77;3.20;;;;;;;13.06;49.80;98198.75;4489303;31;20076;-82
2022/01/04 00:52:01;;;;;;;11.60;3.30;;;;;;;13.11;49.81;98204.53;4503126;31;20096;-82
2022/01/04 00:54:26;;;;;;;9.52;2.90;;;;;;;13.18;49.53;98203.13;4503253;31;20092;-81
2022/01/04 00:56:51;;;;;;;9.88;3.08;;;;;;;13.11;49.16;98207.16;4488869;31;20088;-82
2022/01/04 00:59:17;;;;;;;10.95;3.08;;;;;;;13.10;49.04;98209.94;4503196;31;20088;-82
2022/01/04 01:01:42;;;;;;;12.52;3.45;;;;;;;13.11;49.07;98195.75;4503225;31;20064;-82
2022/01/04 01:04:08;;;;;;;9.85;2.97;;;;;;;13.11;49.19;98212.47;4503020;31;20479;-82
2022/01/04 01:06:34;;;;;;;12.18;3.67;;;;;;;13.16;49.13;98217.41;4502904;31;20100;-82
2022/01/04 01:08:59;;;;;;;9.93;3.33;;;;;;;13.14;49.01;98212.25;4502894;31;20091;-81
2022/01/04 01:11:25;;;;;;;10.98;3.83;;;;;;;13.09;49.42;98218.81;4502846;31;20080;-82
2022/01/04 01:13:51;;;;;;;12.07;4.12;;;;;;;13.09;49.45;98214.38;4502590;31;20092;-82
2022/01/04 01:16:16;;;;;;;12.85;4.62;;;;;;;13.07;49.90;98213.66;4502699;31;20091;-81
2022/01/04 01:18:42;;;;;;;13.88;4.90;;;;;;;13.14;50.19;98204.31;4488051;31;20099;-80
2022/01/04 01:21:08;;;;;;;13.95;5.50;;;;;;;13.11;50.59;98199.22;4502423;31;20099;-80
2022/01/04 01:23:35;;;;;;;12.80;5.53;;;;;;;13.03;51.11;98192.84;4488373;31;20159;-81
2022/01/04 01:26:03;;;;;;;16.00;6.90;;;;;;;13.01;51.15;98185.03;4502716;31;20091;-81
2022/01/04 01:28:29;;;;;;;14.30;6.20;;;;;;;13.11;50.96;98170.16;4502831;31;20151;-81
2022/01/04 01:30:54;;;;;;;14.70;6.80;;;;;;;13.11;51.11;98180.72;4488374;31;20135;-80
2022/01/04 01:33:20;;;;;;;15.02;6.20;;;;;;;13.12;50.98;98182.44;4502696;31;20088;-80
2022/01/04 01:35:46;;;;;;;13.88;5.78;;;;;;;13.07;50.88;98179.28;4488165;31;20146;-80
2022/01/04 01:38:14;;;;;;;14.68;6.25;;;;;;;13.10;50.71;98178.22;4488274;31;20143;-81
2022/01/04 01:40:40;;;;;;;13.90;5.75;;;;;;;13.11;50.96;98167.50;4488742;31;20071;-80
2022/01/04 01:43:06;;;;;;;14.13;5.32;;;;;;;13.14;50.89;98159.34;4502492;31;20147;-80
2022/01/04 01:45:32;;;;;;;14.75;6.93;;;;;;;13.12;51.19;98168.38;4488205;31;20119;-80
2022/01/04 01:47:57;;;;;;;17.92;7.50;;;;;;;13.10;51.09;98146.47;4501058;31;20103;-80
2022/01/04 01:50:23;;;;;;;15.73;6.97;;;;;;;12.99;51.49;98137.53;4488000;31;20372;-80
2022/01/04 01:52:50;;;;;;;16.48;7.15;;;;;;;13.05;51.71;98132.75;4487978;31;20111;-80
2022/01/04 01:55:18;;;;;;;15.95;7.45;;;;;;;12.99;51.93;98134.88;4487993;31;20126;-80
2022/01/04 01:57:43;;;;;;;;;;;;;;;12.93;52.21;98124.78;4488418;31;20088;-80
2022/01/04 02:00:11;;;;;;;17.60;7.87;;;;;;;12.94;52.13;98118.53;4487972;31;20298;-80
2022/01/04 02:02:36;;;;;;;18.30;7.35;;;;;;;12.72;52.75;98105.25;4502203;31;20126;-80
2022/01/04 02:05:02;;;;;;;16.08;7.50;;;;;;;12.76;52.83;98098.75;4502280;31;20443;-80
2022/01/04 02:07:29;;;;;;;18.12;7.90;;;;;;;12.77;52.82;98103.94;4487921;31;20108;-80
2022/01/04 02:10:05;;;;;;;17.57;7.87;;;;;;;12.68;53.20;98098.50;4502472;31;20084;-80
2022/01/04 02:12:32;;;;;;;17.00;7.55;;;;;;;12.67;53.13;98094.16;4489382;31;20147;-80
2022/01/04 02:14:57;;;;;;;16.62;7.53;;;;;;;12.65;53.17;98081.09;4502339;31;20133;-81
2022/01/04 02:17:23;;;;;;;17.35;7.85;;;;;;;12.63;53.24;98072.41;4502348;31;20080;-81
2022/01/04 02:19:49;;;;;;;15.63;6.82;;;;;;;12.63;53.21;98067.13;4488000;31;20143;-81
2022/01/04 02:22:14;;;;;;;16.23;6.95;;;;;;;12.57;53.10;98052.59;4501868;31;20114;-81
2022/01/04 02:24:40;;;;;;;15.27;7.05;;;;;;;12.59;52.97;98053.31;4502118;31;20337;-81
2022/01/04 02:27:05;;;;;;;15.45;7.15;;;;;;;12.53;53.08;98055.56;4501864;31;20110;-81
2022/01/04 02:29:31;;;;;;;17.75;7.75;;;;;;;12.64;52.61;98052.97;4501811;31;20076;-81
2022/01/04 02:31:56;;;;;;;15.38;6.90;;;;;;;12.66;52.48;98050.22;4501693;31;20122;-80
2022/01/04 02:34:22;;;;;;;16.33;6.97;;;;;;;12.63;52.75;98053.91;4487655;31;20135;-80
2022/01/04 02:36:47;;;;;;;18.87;8.73;;;;;;;12.63;52.75;98039.84;4501730;31;20079;-81
2022/01/04 02:39:12;;;;;;;16.20;7.60;;;;;;;12.59;53.17;98052.44;4501615;31;20072;-80
2022/01/04 02:41:38;;;;;;;17.25;8.63;;;;;;;12.57;53.21;98055.22;4487394;31;20372;-80
2022/01/04 02:44:04;;;;;;;16.40;7.40;;;;;;;12.61;53.26;98057.63;4487211;31;20096;-80
2022/01/04 02:46:30;;;;;;;19.35;7.72;;;;;;;12.57;53.51;98046.44;4501597;31;20136;-80
2022/01/04 02:48:55;;;;;;;16.15;7.72;;;;;;;12.62;53.60;98046.94;4501584;31;20344;-80
2022/01/04 02:51:23;;;;;;;17.90;8.38;;;;;;;12.64;53.58;98045.03;4501508;31;20122;-80
2022/01/04 02:53:48;;;;;;;;;;;;;;;12.55;53.97;98041.25;4501881;31;20451;-80
2022/01/04 02:56:14;;;;;;;16.62;7.78;;;;;;;12.54;54.06;98039.59;4487064;31;19967;-81
2022/01/04 02:58:40;;;;;;;18.37;8.20;;;;;;;12.42;54.27;98040.50;4487520;31;20084;-81
2022/01/04 03:01:05;;;;;;;18.08;8.25;;;;;;;12.55;54.11;98032.50;4503701;31;20092;-81
2022/01/04 03:03:32;;;;;;;20.95;8.95;;;;;;;12.46;54.33;98025.25;4503907;31;20079;-80
2022/01/04 03:05:58;;;;;;;20.85;9.63;;;;;;;12.28;54.87;98028.31;4489532;31;20527;-80
2022/01/04 03:08:24;;;;;;;19.12;9.15;;;;;;;12.41;54.66;98033.53;4503799;31;20102;-80
2022/01/04 03:10:50;;;;;;;17.52;8.68;;;;;;;12.37;54.78;98021.50;4489263;31;20108;-81
2022/01/04 03:13:16;;;;;;;19.40;8.15;;;;;;;12.31;54.91;98016.69;4489409;31;20160;-81
2022/01/04 03:15:43;;;;;;;16.85;8.10;;;;;;;12.08;55.60;98027.13;4503519;31;20103;-80
2022/01/04 03:18:08;;;;;;;16.10;7.53;;;;;;;12.11;55.41;98019.00;4489344;31;20443;-80
2022/01/04 03:20:34;;;;;;;15.05;7.07;;;;;;;12.07;55.62;98012.28;4503774;31;20118;-80
2022/01/04 03:23:00;;;;;;;16.08;7.15;;;;;;;11.93;55.99;98001.84;4503565;31;20080;-80
2022/01/04 03:25:25;;;;;;;14.85;7.03;;;;;;;11.96;55.74;98002.47;4489274;31;20080;-80
2022/01/04 03:27:51;;;;;;;19.87;8.60;;;;;;;12.04;55.60;97982.59;4489307;31;20096;-80
2022/01/04 03:30:16;;;;;;;17.50;8.40;;;;;;;12.00;55.62;97988.09;4503520;31;20139;-80
2022/01/04 03:32:42;;;;;;;14.77;6.43;;;;;;;11.96;55.56;97993.72;4489471;31;20193;-80
2022/01/04 03:35:08;;;;;;;17.00;6.37;;;;;;;11.91;55.53;97987.94;4503656;31;20140;-80
2022/01/04 03:37:33;;;;;;;15.70;5.97;;;;;;;11.90;55.47;97983.59;4503768;31;20088;-80
2022/01/04 03:39:58;;;;;;;14.02;6.50;;;;;;;11.79;55.64;97982.56;4503696;31;20091;-80
2022/01/04 03:42:24;;;;;;;14.20;6.28;;;;;;;11.86;55.30;97977.69;4503598;31;20094;-79
2022/01/04 03:44:49;;;;;;;14.52;6.03;;;;;;;11.86;55.46;97975.06;4489452;31;20133;-80
2022/01/04 03:47:15;;;;;;;14.93;6.68;;;;;;;11.81;55.67;97971.88;4489239;31;20096;-80
2022/01/04 03:49:40;;;;;;;14.13;6.28;;;;;;;11.89;55.27;97973.97;4503699;31;20234;-80
2022/01/04 03:52:06;;;;;;;14.30;5.90;;;;;;;11.81;55.51;97971.88;4503619;31;20150;-80
2022/01/04 03:54:31;;;;;;;14.35;5.87;;;;;;;11.80;55.52;97965.78;4503598;31;20462;-80
2022/01/04 03:56:56;;;;;;;14.70;6.65;;;;;;;11.72;55.85;97972.56;4503593;31;20127;-80
2022/01/04 03:59:22;;;;;;;15.20;6.30;;;;;;;11.67;55.85;97970.25;4503576;31;20374;-80
2022/01/04 04:01:48;;;;;;;15.50;6.50;;;;;;;11.61;55.96;97968.06;4489238;31;20088;-80
2022/01/04 04:04:13;;;;;;;15.07;6.65;;;;;;;11.56;56.29;97960.47;4489287;31;20075;-80
2022/01/04 04:06:39;;;;;;;15.20;6.30;;;;;;;11.62;56.25;97948.63;4488936;31;20128;-81
2022/01/04 04:09:05;;;;;;;14.20;6.30;;;;;;;11.57;56.28;97943.69;4503217;31;20110;-80
2022/01/04 04:11:30;;;;;;;15.48;6.68;;;;;;;11.59;56.27;97954.97;4488041;31;20143;-80
2022/01/04 04:13:56;;;;;;;15.57;6.32;;;;;;;11.64;56.13;97948.53;4488969;31;20111;-80
2022/01/04 04:16:21;;;;;;;13.57;5.78;;;;;;;11.70;56.04;97948.06;4488786;31;20420;-80
2022/01/04 04:18:46;;;;;;;14.60;5.80;;;;;;;11.72;56.03;97951.44;4488860;31;20099;-80
2022/01/04 04:21:12;;;;;;;13.40;5.50;;;;;;;11.59;56.40;97941.78;4503010;31;20135;-80
2022/01/04 04:23:38;;;;;;;13.73;6.22;;;;;;;11.62;56.36;97943.34;4503193;31;20076;-80
2022/01/04 04:26:04;;;;;;;16.25;6.12;;;;;;;11.74;56.04;97945.13;4488695;31;20477;-80
2022/01/04 04:28:29;;;;;;;15.65;5.95;;;;;;;11.81;55.87;97937.59;4503198;31;20115;-81
2022/01/04 04:30:56;;;;;;;12.57;5.20;;;;;;;11.88;55.80;97938.84;4488838;31;20372;-81
2022/01/04 04:33:22;;;;;;;13.45;5.47;;;;;;;11.85;56.07;97932.94;4488670;31;20088;-81
2022/01/04 04:35:47;;;;;;;14.35;5.85;;;;;;;11.74;56.30;97931.06;4502957;31;20156;-81
2022/01/04 04:38:13;;;;;;;14.45;5.90;;;;;;;11.71;56.48;97928.66;4488730;31;20447;-81
2022/01/04 04:40:38;;;;;;;13.45;5.90;;;;;;;11.77;56.39;97922.94;4503082;31;20083;-81
2022/01/04 04:43:03;;;;;;;14.65;6.00;;;;;;;11.78;56.44;97932.53;4503117;31;20092;-81
2022/01/04 04:45:29;;;;;;;15.18;6.78;;;;;;;11.84;56.35;97921.53;4488638;31;20105;-81
2022/01/04 04:47:55;;;;;;;12.20;5.10;;;;;;;11.77;56.59;97933.50;4503007;31;20127;-81
2022/01/04 04:50:20;;;;;;;14.07;5.90;;;;;;;11.75;56.58;97941.50;4488690;31;20436;-81
2022/01/04 04:52:46;;;;;;;15.77;6.50;;;;;;;11.74;56.67;97939.84;4502967;31;20119;-81
2022/01/04 04:55:11;;;;;;;14.57;6.53;;;;;;;11.78;56.53;97929.88;4488709;31;20080;-81
2022/01/04 04:57:38;;;;;;;14.73;6.47;;;;;;;11.81;56.54;97929.66;4488549;31;20092;-81
2022/01/04 05:00:05;;;;;;;14.80;6.53;;;;;;;11.78;56.51;97921.97;4475615;31;20187;-81
2022/01/04 05:02:30;;;;;;;14.95;6.80;;;;;;;11.74;56.63;97912.59;4488608;31;20084;-81
2022/01/04 05:04:55;;;;;;;15.13;7.20;;;;;;;11.77;56.49;97909.75;4503125;31;20146;-80
2022/01/04 05:07:21;;;;;;;16.52;7.25;;;;;;;11.80;56.23;97920.06;4488682;31;20104;-81
2022/01/04 05:09:46;;;;;;;17.17;7.47;;;;;;;11.71;56.39;97923.38;4503117;31;20075;-80
2022/01/04 05:12:12;;;;;;;16.35;7.43;;;;;;;11.74;56.29;97915.22;4502999;31;20464;-80
2022/01/04 05:14:39;;;;;;;15.88;7.35;;;;;;;11.58;56.54;97911.06;4503097;31;20381;-80
2022/01/04 05:17:04;;;;;;;17.17;7.70;;;;;;;11.62;56.54;97909.06;4502897;31;20447;-80
2022/01/04 05:19:30;;;;;;;16.17;7.07;;;;;;;11.51;56.75;97917.78;4502859;31;20080;-80
2022/01/04 05:21:55;;;;;;;17.45;7.28;;;;;;;11.53;56.91;97922.91;4502150;31;20092;-80
2022/01/04 05:24:21;;;;;;;16.35;7.80;;;;;;;11.54;56.89;97906.97;4502501;31;20129;-80
2022/01/04 05:26:46;;;;;;;15.63;7.22;;;;;;;11.46;57.06;97904.06;4502695;31;20139;-80
2022/01/04 05:29:11;;;;;;;17.42;7.62;;;;;;;11.36;57.30;97901.25;4488257;31;20389;-80
2022/01/04 05:31:37;;;;;;;19.87;8.00;;;;;;;11.25;57.62;97897.69;4488171;31;20091;-80
2022/01/04 05:34:02;;;;;;;16.50;7.62;;;;;;;11.25;57.81;97893.25;4502605;31;20088;-81
2022/01/04 05:36:28;;;;;;;18.50;7.87;;;;;;;11.16;58.08;97888.63;4502467;31;20075;-81
2022/01/04 05:38:53;;;;;;;17.35;8.25;;;;;;;11.20;57.96;97880.44;4502677;31;20076;-81
2022/01/04 05:41:19;;;;;;;17.98;8.20;;;;;;;11.18;57.97;97882.34;4502499;31;20127;-80
2022/01/04 05:43:46;;;;;;;17.25;7.85;;;;;;;11.06;58.43;97871.81;4502519;31;20341;-80
2022/01/04 05:46:11;;;;;;;17.50;7.47;;;;;;;10.99;58.55;97866.13;4502437;31;20096;-80
2022/01/04 05:48:37;;;;;;;16.92;7.78;;;;;;;10.88;58.89;97868.69;4502454;31;20092;-81
2022/01/04 05:51:02;;;;;;;14.40;6.60;;;;;;;10.81;59.32;97860.34;4502509;31;20071;-81
2022/01/04 05:53:29;;;;;;;14.38;5.95;;;;;;;10.91;59.16;97850.00;4502404;31;20135;-81
2022/01/04 05:55:55;;;;;;;13.90;5.90;;;;;;;10.73;59.81;97855.62;4488121;31;20448;-81
2022/01/04 05:58:20;;;;;;;13.85;5.28;;;;;;;10.82;59.71;97848.88;4502284;31;20098;-82
2022/01/04 06:00:46;;;;;;;13.43;5.30;;;;;;;10.84;59.80;97843.50;4502229;31;20444;-81
2022/01/04 06:03:11;;;;;;;13.65;5.18;;;;;;;10.89;59.77;97847.47;4502311;31;20068;-81
2022/01/04 06:05:37;;;;;;;14.38;5.72;;;;;;;10.84;60.04;97844.34;4502273;31;20109;-81
2022/01/04 06:08:02;;;;;;;14.87;5.75;;;;;;;11.02;59.49;97850.09;4487846;31;20132;-82
2022/01/04 06:10:35;;;;;;;14.45;5.53;;;;;;;10.87;59.85;97848.56;4487924;31;20103;-81
2022/01/04 06:15:26;;;;;;;15.07;6.10;;;;;;;10.90;59.68;97846.53;4502037;31;20104;-83
2022/01/04 06:17:52;;;;;;;12.68;5.43;;;;;;;10.92;59.56;97841.16;4502121;31;20084;-82
2022/01/04 06:20:21;;;;;;;14.75;5.70;;;;;;;10.90;59.67;97843.91;4487553;31;20103;-82
2022/01/04 06:22:47;;;;;;;14.25;5.80;;;;;;;10.86;59.79;97847.72;4502326;31;20144;-83
2022/01/04 06:25:15;;;;;;;14.93;6.00;;;;;;;10.79;60.03;97842.03;4485285;31;20092;-82
2022/01/04 06:27:45;;;;;;;14.87;5.68;;;;;;;10.75;60.11;97840.56;4485126;32;20109;-82
2022/01/04 06:30:14;;;;;;;13.95;6.00;;;;;;;10.81;59.79;97842.75;4486360;32;20084;-82
2022/01/04 06:32:42;;;;;;;13.05;5.82;;;;;;;10.77;59.79;97835.19;4483674;31;20145;-81
2022/01/04 06:35:07;;;;;;;15.02;6.43;;;;;;;10.64;60.10;97829.94;4489255;31;20103;-82
2022/01/04 06:37:33;;;;;;;14.93;6.30;;;;;;;10.74;59.98;97825.72;4496400;31;20084;-86
2022/01/04 06:39:58;;;;;;;14.45;6.18;;;;;;;10.75;59.65;97816.84;4488746;32;20080;-86
2022/01/04 06:42:25;;;;;;;15.52;6.03;;;;;;;10.65;60.04;97818.47;4474197;32;20408;-83
2022/01/04 06:44:50;;;;;;;13.48;5.78;;;;;;;10.49;60.42;97823.09;4488480;32;20111;-82
2022/01/04 06:47:16;;;;;;;14.40;6.25;;;;;;;10.46;60.46;97803.09;4473393;32;20128;-83
2022/01/04 06:49:41;;;;;;;13.90;5.62;;;;;;;10.50;60.45;97809.00;4474107;32;20466;-82
2022/01/04 06:52:08;;;;;;;14.18;5.75;;;;;;;10.56;60.18;97804.13;4486467;32;20107;-81
2022/01/04 06:54:33;;;;;;;13.43;5.95;;;;;;;10.48;60.47;97788.03;4487484;32;20115;-87
2022/01/04 06:56:59;;;;;;;12.98;5.32;;;;;;;10.47;60.44;97790.78;4487072;32;20348;-85
2022/01/04 06:59:24;;;;;;;13.85;5.30;;;;;;;10.58;60.02;97785.59;4487268;32;20084;-84
2022/01/04 07:01:50;;;;;;;14.10;5.70;;;;;;;10.52;60.24;97786.03;4487245;32;20124;-84
2022/01/04 07:04:15;;;;;;;12.77;5.22;;;;;;;10.52;60.22;97778.13;4473097;32;20373;-86
2022/01/04 07:06:41;;;;;;;16.02;5.68;;;;;;;10.47;60.39;97774.97;4473888;32;20092;-86
2022/01/04 07:09:07;;;;;;;13.88;5.90;;;;;;;10.50;60.37;97775.59;4473911;31;20743;-84
2022/01/04 07:11:33;;;;;;;12.65;5.53;;;;;;;10.61;59.92;97782.75;4488037;31;20084;-87
2022/01/04 07:13:59;;;;;;;13.65;5.57;;;;;;;10.71;59.71;97804.00;4472497;32;20101;-80
2022/01/04 07:16:25;;;;;;;19.35;5.68;;;;;;;10.78;59.43;97813.19;4493333;31;20114;-80
2022/01/04 07:18:50;;;;;;;13.35;5.18;;;;;;;10.74;59.36;97809.91;4494491;31;20097;-80
2022/01/04 07:21:16;;;;;;;14.45;5.72;;;;;;;10.73;59.51;97815.28;4473163;32;20124;-80
2022/01/04 07:23:43;;;;;;;14.00;5.25;;;;;;;10.73;59.40;97821.37;4487483;32;20115;-80
2022/01/04 07:26:14;;;;;;;12.05;5.22;;;;;;;10.87;59.10;97811.66;4473187;32;20147;-80
2022/01/04 07:28:40;;;;;;;16.20;6.25;;;;;;;10.94;58.88;97820.81;4487522;32;20143;-80
2022/01/04 07:31:05;;;;;;;12.30;5.07;;;;;;;10.82;59.08;97823.38;4487565;32;20081;-81
2022/01/04 07:33:31;;;;;;;13.50;5.60;;;;;;;10.84;59.22;97812.72;4487462;32;20342;-81
2022/01/04 07:35:56;;;;;;;16.70;5.55;;;;;;;10.86;59.17;97815.25;4487573;32;20087;-81
2022/01/04 07:38:22;;;;;;;13.50;5.55;;;;;;;10.87;59.23;97809.84;4473044;32;20084;-82
2022/01/04 07:40:47;;;;;;;12.13;5.00;;;;;;;11.10;58.59;97808.22;4485320;32;20092;-85
2022/01/04 07:43:14;;;;;;;12.93;4.57;;;;;;;11.14;58.46;97803.56;4485830;32;20111;-85
2022/01/04 07:45:40;;;;;;;11.02;4.32;;;;;;;11.27;57.99;97801.72;4486725;32;20140;-83
2022/01/04 07:48:10;;;;;;;12.93;4.85;;;;;;;11.39;57.80;97792.06;4472381;32;20084;-83
2022/01/04 07:50:39;;;;;;;15.90;4.93;;;;;;;11.58;57.16;97792.38;4486620;32;20089;-83
2022/01/04 07:53:06;;;;;;;12.52;4.75;;;;;;;11.51;57.17;97788.53;4486581;32;20123;-83
2022/01/04 07:55:31;;;;;;;14.43;5.15;;;;;;;11.47;57.35;97788.84;4487522;32;20144;-83
2022/01/04 07:57:57;;;;;;;13.52;5.25;;;;;;;11.38;57.60;97769.28;4473290;32;20115;-83
2022/01/04 08:00:22;;;;;;;12.27;5.20;;;;;;;11.48;57.41;97767.66;4473469;32;20111;-83
2022/01/04 08:02:48;;;;;;;13.52;4.68;;;;;;;11.69;57.11;97753.81;4487848;32;20122;-83
2022/01/04 08:05:13;;;;;;;14.00;4.53;;;;;;;11.76;56.80;97765.56;4487660;32;20100;-83
2022/01/04 08:07:39;;;;;;;11.68;4.68;;;;;;;11.74;56.77;97756.94;4460270;32;20092;-83
2022/01/04 08:10:05;;;;;;;11.52;4.50;;;;;;;11.89;56.46;97749.66;4487455;32;20094;-83
2022/01/04 08:12:31;;;;;;;11.50;4.80;;;;;;;11.99;56.32;97748.00;4487377;32;20119;-83
2022/01/04 08:14:57;;;;;;;10.73;4.53;;;;;;;11.97;56.33;97745.47;4472923;32;20104;-83
2022/01/04 08:17:22;;;;;;;10.43;4.00;;;;;;;12.16;55.86;97726.41;4460136;32;20152;-83
2022/01/04 08:19:50;;;;;;;11.70;4.80;;;;;;;12.32;55.59;97727.84;4487428;32;20341;-83
2022/01/04 08:22:16;;;;;;;13.38;4.93;;;;;;;12.26;55.69;97731.00;4487301;32;20088;-83
2022/01/04 08:24:41;;;;;;;11.35;4.78;;;;;;;12.49;54.91;97719.44;4473180;32;20084;-82
2022/01/04 08:27:07;;;;;;;12.15;4.43;;;;;;;12.58;54.44;97712.59;4487334;32;20111;-82
2022/01/04 08:29:32;;;;;;;11.85;5.03;;;;;;;12.58;54.37;97707.31;4472980;32;20080;-83
2022/01/04 08:31:58;;;;;;;12.43;4.35;;;;;;;12.53;54.43;97698.91;4487465;32;20149;-82
2022/01/04 08:34:24;;;;;;;13.43;4.65;;;;;;;12.63;54.34;97704.28;4487421;32;20148;-82
2022/01/04 08:36:50;;;;;;;13.62;4.47;;;;;;;12.54;54.48;97700.59;4487142;32;20104;-83
2022/01/04 08:39:15;;;;;;;12.57;4.82;;;;;;;12.43;54.68;97698.81;4487277;32;20102;-83
2022/01/04 08:41:42;;;;;;;13.30;5.05;;;;;;;12.43;54.60;97700.63;4487542;32;20451;-82
2022/01/04 08:44:08;;;;;;;12.18;4.85;;;;;;;12.32;54.92;97718.16;4487565;32;20118;-82
2022/01/04 08:46:35;;;;;;;12.37;5.20;;;;;;;12.42;54.97;97727.97;4487553;32;20084;-83
2022/01/04 08:49:07;;;;;;;15.02;5.07;;;;;;;12.44;54.80;97718.12;4473381;32;20072;-82
2022/01/04 08:51:32;;;;;;;12.68;4.70;;;;;;;12.39;55.01;97703.47;4473675;32;20168;-83
2022/01/04 08:53:58;;;;;;;12.75;4.80;;;;;;;12.62;54.50;97700.81;4487367;32;20091;-83
2022/01/04 08:56:23;;;;;;;11.35;4.18;;;;;;;12.54;54.67;97719.94;4486683;32;20218;-83
2022/01/04 08:58:49;;;;;;;13.00;4.43;;;;;;;12.68;54.45;97721.47;4460123;32;20470;-83
2022/01/04 09:01:14;;;;;;;11.32;4.78;;;;;;;12.70;54.30;97713.41;4487345;32;20088;-82
2022/01/04 09:03:40;;;;;;;11.88;4.78;;;;;;;12.67;54.20;97708.38;4487474;32;20480;-83
2022/01/04 09:06:08;;;;;;;11.98;4.87;;;;;;;12.73;54.07;97699.97;4487506;32;20122;-83
2022/01/04 09:08:33;;;;;;;14.15;4.50;;;;;;;12.81;53.79;97707.28;4487317;32;20402;-83
2022/01/04 09:11:00;;;;;;;13.20;4.93;;;;;;;12.79;53.80;97694.19;4487325;32;20096;-83
2022/01/04 09:13:32;;;;;;;11.95;4.80;;;;;;;12.85;53.74;97696.31;4487291;32;20087;-83
2022/01/04 09:18:48;;;;;;;12.25;4.30;;;;;;;12.70;54.00;97695.75;4473932;32;20080;-83
2022/01/04 09:21:24;;;;;;;14.30;4.65;;;;;;;12.85;53.98;97690.19;4486975;32;20121;-83
2022/01/04 09:23:49;;;;;;;13.55;5.10;;;;;;;12.93;53.74;97698.34;4472860;32;20125;-83
2022/01/04 09:26:17;;;;;;;11.43;5.15;;;;;;;12.71;53.99;97684.22;4472711;32;20089;-83
2022/01/04 09:28:43;;;;;;;12.25;4.87;;;;;;;12.82;53.81;97685.16;4472607;32;20152;-83
2022/01/04 09:31:09;;;;;;;13.48;4.68;;;;;;;12.77;53.90;97670.50;4486980;32;20093;-83
2022/01/04 09:33:35;;;;;;;13.70;4.87;;;;;;;12.79;54.08;97662.47;4472619;32;20100;-83
2022/01/04 09:36:00;;;;;;;11.50;4.60;;;;;;;12.89;53.90;97660.75;4472501;32;20140;-83
2022/01/04 09:38:26;;;;;;;13.80;5.12;;;;;;;12.99;53.70;97661.66;4486829;32;20115;-83
2022/01/04 09:40:53;;;;;;;13.23;5.35;;;;;;;12.76;54.18;97647.69;4486794;32;20476;-83
2022/01/04 09:43:20;;;;;;;11.43;4.87;;;;;;;13.07;53.41;97631.09;4486880;32;20119;-83
2022/01/04 09:45:46;;;;;;;13.90;4.70;;;;;;;13.11;53.25;97627.22;4486858;32;20443;-83
2022/01/04 09:48:12;;;;;;;13.10;5.10;;;;;;;13.24;53.14;97629.69;4472391;32;20096;-83
2022/01/04 09:50:39;;;;;;;11.43;4.50;;;;;;;13.30;53.07;97623.91;4486733;32;20088;-83
2022/01/04 09:53:06;;;;;;;10.95;4.15;;;;;;;13.22;53.44;97621.88;4486562;32;20118;-83
2022/01/04 09:55:34;;;;;;;13.90;4.97;;;;;;;13.36;52.97;97613.66;4459583;32;20084;-83
2022/01/04 09:57:59;;;;;;;12.52;4.95;;;;;;;13.52;52.41;97594.69;4486822;32;20397;-83
2022/01/04 10:00:25;;;;;;;13.15;4.90;;;;;;;13.55;52.35;97580.34;4486451;32;20088;-83
2022/01/04 10:02:51;;;;;;;12.48;5.03;;;;;;;13.57;52.08;97581.88;4486564;32;20115;-83
2022/01/04 10:05:21;;;;;;;12.45;4.85;;;;;;;13.50;52.50;97570.16;4472186;32;20115;-83
2022/01/04 10:07:47;;;;;;;11.95;5.03;;;;;;;13.63;52.20;97574.38;4472289;32;20071;-83
2022/01/04 10:10:16;;;;;;;13.30;5.33;;;;;;;13.80;51.83;97584.34;4488035;32;20122;-83
2022/01/04 10:12:57;;;;;;;13.07;4.72;;;;;;;13.62;52.23;97586.78;4488328;32;20257;-83
2022/01/04 10:15:43;;;;;;;13.68;5.50;;;;;;;13.56;52.27;97564.34;4474056;32;20797;-83
2022/01/04 10:18:14;;;;;;;12.55;4.95;;;;;;;13.73;52.19;97556.72;4488338;32;20084;-83
2022/01/04 10:20:39;;;;;;;12.52;4.80;;;;;;;13.72;52.39;97547.97;4488090;32;20091;-83
2022/01/04 10:23:12;;;;;;;12.07;4.82;;;;;;;13.66;52.28;97563.53;4488349;32;20122;-82
2022/01/04 10:25:38;;;;;;;11.95;4.72;;;;;;;13.87;52.17;97566.09;4488236;32;20076;-83
2022/01/04 10:28:04;;;;;;;13.23;5.57;;;;;;;13.88;52.25;97565.16;4488238;32;20076;-83
2022/01/04 10:30:35;;;;;;;11.82;4.95;;;;;;;13.87;52.34;97566.97;4488293;32;20135;-83
2022/01/04 10:33:02;;;;;;;11.40;4.82;;;;;;;13.94;52.31;97562.78;4473962;32;20092;-83
2022/01/04 10:35:29;;;;;;;12.15;4.75;;;;;;;14.10;52.01;97567.59;4473882;32;20250;-83
2022/01/04 10:37:57;;;;;;;12.52;4.95;;;;;;;13.99;52.15;97564.22;4488014;32;20076;-83
2022/01/04 10:40:23;;;;;;;12.50;5.18;;;;;;;14.21;51.84;97553.38;4473851;32;20096;-83
2022/01/04 10:42:49;;;;;;;12.43;5.22;;;;;;;14.23;51.71;97540.81;4488145;32;20119;-83
2022/01/04 10:45:31;;;;;;;11.27;4.75;;;;;;;14.32;51.82;97547.13;4488041;32;20111;-83
2022/01/04 10:48:14;;;;;;;13.98;5.18;;;;;;;14.42;51.70;97550.62;4488114;32;20079;-83
2022/01/04 10:50:40;;;;;;;11.73;5.18;;;;;;;14.52;51.30;97540.84;4488135;32;20479;-83
2022/01/04 10:53:06;;;;;;;11.82;4.68;;;;;;;14.58;51.17;97549.25;4488014;32;20101;-83
2022/01/04 10:55:35;;;;;;;11.50;4.75;;;;;;;14.36;51.74;97552.00;4473622;32;20115;-83
2022/01/04 10:58:02;;;;;;;12.80;4.62;;;;;;;14.33;51.90;97549.66;4473640;32;20201;-83
2022/01/04 11:00:28;;;;;;;11.52;4.70;;;;;;;14.46;51.75;97541.41;4473680;32;20101;-83
2022/01/04 11:02:55;;;;;;;11.27;4.93;;;;;;;14.55;51.84;97529.16;4474105;32;20127;-83
2022/01/04 11:05:21;;;;;;;12.43;4.78;;;;;;;14.63;51.60;97516.06;4488142;32;20527;-83
2022/01/04 11:08:03;;;;;;;11.35;4.47;;;;;;;14.61;51.75;97515.38;4474110;32;20119;-83
2022/01/04 11:10:31;;;;;;;11.57;4.60;;;;;;;14.65;51.75;97513.28;4473543;32;20120;-83
2022/01/04 11:12:58;;;;;;;11.88;4.45;;;;;;;14.66;51.80;97513.16;4487944;32;20096;-83
2022/01/04 11:15:24;;;;;;;11.10;4.22;;;;;;;14.60;51.85;97502.25;4473509;32;20084;-83
2022/01/04 11:17:50;;;;;;;12.05;4.70;;;;;;;14.55;51.82;97494.69;4487861;32;20148;-83
2022/01/04 11:20:17;;;;;;;11.75;4.97;;;;;;;14.65;51.67;97481.47;4487383;32;20115;-83
2022/01/04 11:22:45;;;;;;;11.40;4.70;;;;;;;14.60;51.93;97502.25;4487865;32;20455;-83
2022/01/04 11:25:11;;;;;;;11.23;4.30;;;;;;;14.59;52.04;97472.25;4473823;32;20156;-83
2022/01/04 11:27:39;;;;;;;11.48;4.65;;;;;;;14.51;52.32;97472.94;4473572;32;20133;-83
2022/01/04 11:30:28;;;;;;;11.07;4.43;;;;;;;14.50;52.37;97468.59;4473380;32;20104;-84